createdAt,value
2019-03-15T00:01:26.025Z,99447.59
2019-03-15T00:03:53.040Z,99448.70
2019-03-15T00:06:20.104Z,99459.50
2019-03-15T00:08:48.485Z,99460.51
2019-03-15T00:11:15.543Z,99467.09
2019-03-15T00:13:45.400Z,99469.70
2019-03-15T00:16:12.527Z,99468.90
2019-03-15T00:18:39.677Z,99465.25
2019-03-15T00:21:12.412Z,99462.47
2019-03-15T00:23:39.464Z,99467.11
2019-03-15T00:26:06.483Z,99467.69
2019-03-15T00:28:33.516Z,99465.69
2019-03-15T00:31:00.563Z,99469.63
2019-03-15T00:33:27.872Z,99476.47
2019-03-15T00:35:55.269Z,99479.34
2019-03-15T00:38:24.002Z,99482.02
2019-03-15T00:40:51.199Z,99483.13
2019-03-15T00:43:18.256Z,99489.44
2019-03-15T00:45:45.293Z,99491.92
2019-03-15T00:48:12.651Z,99489.23
2019-03-15T00:50:39.703Z,99480.11
2019-03-15T00:53:07.038Z,99481.75
2019-03-15T00:55:34.465Z,99486.53
2019-03-15T00:58:01.747Z,99483.58
2019-03-15T01:00:28.777Z,99489.82
2019-03-15T01:02:56.143Z,99502.44
2019-03-15T01:05:23.357Z,99502.68
2019-03-15T01:07:50.374Z,99499.02
2019-03-15T01:10:17.409Z,99490.52
2019-03-15T01:12:44.449Z,99500.86
2019-03-15T01:15:12.073Z,99501.80
2019-03-15T01:17:39.510Z,99495.77
2019-03-15T01:20:06.628Z,99505.01
2019-03-15T01:22:33.794Z,99508.90
2019-03-15T01:25:01.435Z,99499.07
2019-03-15T01:27:28.575Z,99503.77
2019-03-15T01:29:55.620Z,99512.24
2019-03-15T01:32:22.983Z,99514.27
2019-03-15T01:34:50.079Z,99508.02
2019-03-15T01:37:17.140Z,99515.11
2019-03-15T01:39:44.992Z,99513.75
2019-03-15T01:42:12.052Z,99514.56
2019-03-15T01:44:39.098Z,99522.01
2019-03-15T01:47:06.141Z,99507.88
2019-03-15T01:49:33.630Z,99505.75
2019-03-15T01:52:01.141Z,99506.77
2019-03-15T01:54:28.472Z,99507.23
2019-03-15T01:56:55.708Z,99508.32
2019-03-15T01:59:23.047Z,99495.92
2019-03-15T02:01:50.125Z,99488.35
2019-03-15T02:04:17.245Z,99491.21
2019-03-15T02:06:45.302Z,99496.63
2019-03-15T02:09:12.829Z,99494.95
2019-03-15T02:11:39.921Z,99495.31
2019-03-15T02:14:09.621Z,99484.85
2019-03-15T02:16:37.438Z,99482.64
2019-03-15T02:19:04.594Z,99474.69
2019-03-15T02:21:31.649Z,99471.36
2019-03-15T02:23:59.129Z,99469.32
2019-03-15T02:26:26.281Z,99468.06
2019-03-15T02:28:53.849Z,99463.55
2019-03-15T02:31:21.340Z,99472.59
2019-03-15T02:33:48.623Z,99469.62
2019-03-15T02:36:18.375Z,99481.45
2019-03-15T02:38:45.426Z,99481.91
2019-03-15T02:41:13.894Z,99491.45
2019-03-15T02:43:42.020Z,99488.88
2019-03-15T02:46:11.617Z,99487.64
2019-03-15T02:48:41.082Z,99498.63
2019-03-15T02:51:08.237Z,99502.56
2019-03-15T02:53:35.680Z,99498.16
2019-03-15T02:56:03.346Z,99493.53
2019-03-15T02:58:30.359Z,99500.17
2019-03-15T03:00:57.765Z,99485.41
2019-03-15T03:03:26.881Z,99501.28
2019-03-15T03:05:54.310Z,99494.54
2019-03-15T03:08:24.307Z,99499.44
2019-03-15T03:10:52.680Z,99492.69
2019-03-15T03:13:19.698Z,99500.55
2019-03-15T03:15:47.082Z,99500.92
2019-03-15T03:18:14.165Z,99508.55
2019-03-15T03:20:41.251Z,99504.87
2019-03-15T03:23:08.273Z,99510.61
2019-03-15T03:25:35.321Z,99500.16
2019-03-15T03:28:02.347Z,99514.17
2019-03-15T03:30:29.812Z,99510.04
2019-03-15T03:32:57.088Z,99513.34
2019-03-15T03:35:24.469Z,99517.11
2019-03-15T03:37:52.001Z,99517.48
2019-03-15T03:40:21.344Z,99511.03
2019-03-15T03:42:48.505Z,99510.20
2019-03-15T03:45:15.539Z,99509.55
2019-03-15T03:47:43.450Z,99512.40
2019-03-15T03:50:10.787Z,99504.83
2019-03-15T03:52:41.517Z,99509.09
2019-03-15T03:55:07.517Z,99518.78
2019-03-15T03:57:34.780Z,99516.27
2019-03-15T04:00:01.861Z,99515.55
2019-03-15T04:02:29.370Z,99517.19
2019-03-15T04:04:58.243Z,99521.06
2019-03-15T04:07:25.572Z,99533.06
2019-03-15T04:09:52.635Z,99523.30
2019-03-15T04:12:19.666Z,99524.33
2019-03-15T04:14:46.712Z,99521.36
2019-03-15T04:17:15.853Z,99519.61
2019-03-15T04:19:42.929Z,99527.02
2019-03-15T04:22:10.321Z,99525.53
2019-03-15T04:24:37.385Z,99522.95
2019-03-15T04:27:04.402Z,99521.93
2019-03-15T04:29:32.193Z,99517.59
2019-03-15T04:32:01.457Z,99512.25
2019-03-15T04:34:28.728Z,99503.85
2019-03-15T04:36:56.475Z,99510.31
2019-03-15T04:39:23.537Z,99501.91
2019-03-15T04:41:50.638Z,99498.87
2019-03-15T04:44:17.653Z,99499.14
2019-03-15T04:46:44.783Z,99503.02
2019-03-15T04:49:11.827Z,99488.09
2019-03-15T04:51:38.902Z,99488.92
2019-03-15T04:54:06.614Z,99487.91
2019-03-15T04:56:33.664Z,99489.65
2019-03-15T04:59:00.705Z,99489.45
2019-03-15T05:01:27.790Z,99503.92
2019-03-15T05:03:54.891Z,99507.48
2019-03-15T05:06:21.976Z,99500.31
2019-03-15T05:08:49.064Z,99495.59
2019-03-15T05:11:16.119Z,99505.62
2019-03-15T05:13:43.535Z,99494.64
2019-03-15T05:16:10.591Z,99489.86
2019-03-15T05:18:37.619Z,99490.23
2019-03-15T05:21:04.658Z,99491.96
2019-03-15T05:23:31.894Z,99490.75
2019-03-15T05:25:58.920Z,99483.84
2019-03-15T05:28:26.357Z,99488.16
2019-03-15T05:30:54.613Z,99485.03
2019-03-15T05:33:22.854Z,99488.70
2019-03-15T05:35:50.353Z,99493.86
2019-03-15T05:38:17.400Z,99492.00
2019-03-15T05:40:44.495Z,99496.23
2019-03-15T05:43:13.131Z,99488.65
2019-03-15T05:45:40.178Z,99486.55
2019-03-15T05:48:09.008Z,99483.78
2019-03-15T05:50:36.342Z,99486.04
2019-03-15T05:53:03.449Z,99480.47
2019-03-15T05:55:30.643Z,99493.02
2019-03-15T05:58:03.893Z,99485.27
2019-03-15T06:00:31.378Z,99485.73
2019-03-15T06:02:58.395Z,99494.96
2019-03-15T06:05:25.789Z,99488.77
2019-03-15T06:07:53.137Z,99495.15
2019-03-15T06:10:20.178Z,99497.02
2019-03-15T06:12:47.383Z,99491.85
2019-03-15T06:15:14.469Z,99498.31
2019-03-15T06:17:45.711Z,99505.30
2019-03-15T06:20:12.779Z,99500.52
2019-03-15T06:22:40.275Z,99501.34
2019-03-15T06:25:07.579Z,99493.93
2019-03-15T06:27:34.677Z,99499.92
2019-03-15T06:30:01.843Z,99501.03
2019-03-15T06:32:30.358Z,99499.81
2019-03-15T06:34:57.415Z,99490.75
2019-03-15T06:37:25.011Z,99492.48
2019-03-15T06:39:52.040Z,99490.36
2019-03-15T06:42:24.835Z,99486.56
2019-03-15T06:45:04.869Z,99480.02
2019-03-15T06:47:32.492Z,99480.61
2019-03-15T06:49:59.547Z,99473.58
2019-03-15T06:52:26.614Z,99475.14
2019-03-15T06:54:53.720Z,99477.52
2019-03-15T06:57:21.878Z,99464.94
2019-03-15T06:59:48.953Z,99464.80
2019-03-15T07:02:16.011Z,99465.31
2019-03-15T07:04:43.304Z,99468.16
2019-03-15T07:07:15.101Z,99464.89
2019-03-15T07:09:41.149Z,99455.32
2019-03-15T07:12:09.711Z,99453.45
2019-03-15T07:14:37.205Z,99448.05
2019-03-15T07:17:04.275Z,99438.42
2019-03-15T07:19:31.310Z,99434.60
2019-03-15T07:21:58.756Z,99428.09
2019-03-15T07:24:25.892Z,99435.50
2019-03-15T07:26:54.296Z,99432.77
2019-03-15T07:29:21.820Z,99421.10
2019-03-15T07:31:48.873Z,99414.33
2019-03-15T07:34:17.435Z,99421.87
2019-03-15T07:36:44.478Z,99413.97
2019-03-15T07:39:12.972Z,99419.80
2019-03-15T07:41:40.273Z,99416.08
2019-03-15T07:44:07.774Z,99408.75
2019-03-15T07:46:34.821Z,99405.25
2019-03-15T07:49:01.931Z,99402.44
2019-03-15T07:51:29.060Z,99389.39
2019-03-15T07:53:56.184Z,99389.36
2019-03-15T07:56:24.660Z,99384.73
2019-03-15T07:58:52.170Z,99391.02
2019-03-15T08:01:19.254Z,99385.42
2019-03-15T08:03:46.253Z,99370.42
2019-03-15T08:06:13.643Z,99382.94
2019-03-15T08:08:40.860Z,99383.52
2019-03-15T08:11:08.236Z,99385.44
2019-03-15T08:13:36.293Z,99373.05
2019-03-15T08:16:03.534Z,99377.02
2019-03-15T08:18:30.562Z,99376.73
2019-03-15T08:20:57.980Z,99373.22
2019-03-15T08:23:25.067Z,99370.33
2019-03-15T08:25:52.435Z,99366.97
2019-03-15T08:28:19.778Z,99360.75
2019-03-15T08:31:17.764Z,99362.25
2019-03-15T08:33:44.897Z,99365.88
2019-03-15T08:36:12.334Z,99357.27
2019-03-15T08:38:47.288Z,99346.08
2019-03-15T08:41:08.366Z,99357.19
2019-03-15T08:43:38.211Z,99360.29
2019-03-15T08:46:05.371Z,99356.05
2019-03-15T08:48:34.676Z,99350.98
2019-03-15T08:51:02.156Z,99352.99
2019-03-15T08:53:29.363Z,99350.78
2019-03-15T08:55:56.404Z,99341.13
2019-03-15T08:58:23.507Z,99344.67
2019-03-15T09:00:50.578Z,99345.39
2019-03-15T09:03:27.785Z,99337.11
2019-03-15T09:05:47.202Z,99332.33
2019-03-15T09:08:15.743Z,99333.48
2019-03-15T09:10:42.839Z,99330.89
2019-03-15T09:13:10.943Z,99331.41
2019-03-15T09:15:38.177Z,99342.30
2019-03-15T09:18:06.777Z,99315.94
2019-03-15T09:20:37.576Z,99326.96
2019-03-15T09:23:07.202Z,99318.30
2019-03-15T09:25:34.901Z,99307.87
2019-03-15T09:28:02.195Z,99324.42
2019-03-15T09:30:29.618Z,99317.61
2019-03-15T09:33:04.825Z,99326.74
2019-03-15T09:35:32.139Z,99319.19
2019-03-15T09:38:01.990Z,99314.16
2019-03-15T09:40:29.368Z,99311.81
2019-03-15T09:42:59.718Z,99305.48
2019-03-15T09:45:30.191Z,99286.73
2019-03-15T09:47:59.110Z,99290.20
2019-03-15T09:50:36.008Z,99308.73
2019-03-15T09:52:55.247Z,99294.78
2019-03-15T09:55:32.763Z,99303.12
2019-03-15T09:57:55.365Z,99308.95
2019-03-15T10:00:22.861Z,99311.64
2019-03-15T10:02:50.185Z,99311.71
2019-03-15T10:05:17.262Z,99297.28
2019-03-15T10:07:44.450Z,99298.49
2019-03-15T10:10:13.764Z,99288.86
2019-03-15T10:12:40.619Z,99321.81
2019-03-15T10:15:09.601Z,99313.99
2019-03-15T10:17:36.708Z,99313.72
2019-03-15T10:20:04.869Z,99310.94
2019-03-15T10:22:31.928Z,99295.85
2019-03-15T10:24:59.063Z,99310.70
2019-03-15T10:27:26.115Z,99313.86
2019-03-15T10:29:53.159Z,99310.25
2019-03-15T10:32:20.374Z,99298.07
2019-03-15T10:34:49.452Z,99307.16
2019-03-15T10:37:16.503Z,99305.39
2019-03-15T10:39:43.808Z,99301.41
2019-03-15T10:42:10.972Z,99300.61
2019-03-15T10:44:39.168Z,99299.67
2019-03-15T10:47:06.240Z,99302.16
2019-03-15T10:49:33.905Z,99299.32
2019-03-15T10:52:00.965Z,99294.97
2019-03-15T10:54:28.480Z,99293.31
2019-03-15T10:56:55.656Z,99295.30
2019-03-15T10:59:24.628Z,99299.80
2019-03-15T11:01:52.000Z,99298.38
2019-03-15T11:04:19.149Z,99296.45
2019-03-15T11:06:46.533Z,99295.29
2019-03-15T11:09:30.614Z,99298.11
2019-03-15T11:12:00.376Z,99302.84
2019-03-15T11:14:27.444Z,99299.08
2019-03-15T11:16:54.486Z,99293.53
2019-03-15T11:19:21.566Z,99296.59
2019-03-15T11:21:49.097Z,99302.23
2019-03-15T11:24:16.186Z,99296.27
2019-03-15T11:26:43.218Z,99292.02
2019-03-15T11:29:10.542Z,99296.16
2019-03-15T11:31:37.648Z,99288.27
2019-03-15T11:34:04.734Z,99293.45
2019-03-15T11:36:33.659Z,99297.88
2019-03-15T11:39:00.734Z,99286.77
2019-03-15T11:41:28.339Z,99286.13
2019-03-15T11:43:56.569Z,99286.95
2019-03-15T11:46:23.644Z,99289.84
2019-03-15T11:48:50.686Z,99284.71
2019-03-15T11:51:17.794Z,99297.42
2019-03-15T11:53:45.047Z,99286.70
2019-03-15T11:56:12.073Z,99295.60
2019-03-15T11:58:39.183Z,99291.91
2019-03-15T12:01:06.960Z,99281.30
2019-03-15T12:03:34.178Z,99279.02
2019-03-15T12:06:01.475Z,99279.27
2019-03-15T12:08:28.530Z,99285.05
2019-03-15T12:10:55.609Z,99282.80
2019-03-15T12:13:24.018Z,99289.78
2019-03-15T12:15:51.150Z,99292.02
2019-03-15T12:18:18.234Z,99295.73
2019-03-15T12:20:48.999Z,99290.46
2019-03-15T12:23:14.848Z,99291.41
2019-03-15T12:25:41.910Z,99279.10
2019-03-15T12:28:09.545Z,99285.70
2019-03-15T12:30:42.867Z,99298.78
2019-03-15T12:33:08.808Z,99308.09
2019-03-15T12:35:37.619Z,99303.66
2019-03-15T12:38:18.383Z,99294.48
2019-03-15T12:40:46.451Z,99298.66
2019-03-15T12:43:14.182Z,99299.64
2019-03-15T12:45:41.380Z,99301.34
2019-03-15T12:48:08.750Z,99306.91
2019-03-15T12:50:36.808Z,99309.78
2019-03-15T12:53:05.075Z,99306.55
2019-03-15T12:55:32.686Z,99310.61
2019-03-15T12:57:59.986Z,99309.52
2019-03-15T13:00:27.137Z,99294.91
2019-03-15T13:02:54.441Z,99296.56
2019-03-15T13:05:21.684Z,99306.77
2019-03-15T13:07:48.737Z,99293.06
2019-03-15T13:10:16.202Z,99300.15
2019-03-15T13:12:44.383Z,99302.54
2019-03-15T13:15:11.983Z,99299.64
2019-03-15T13:17:39.529Z,99296.20
2019-03-15T13:20:13.605Z,99299.97
2019-03-15T13:22:42.116Z,99298.63
2019-03-15T13:25:12.819Z,99292.94
2019-03-15T13:27:41.232Z,99302.95
2019-03-15T13:30:08.734Z,99304.53
2019-03-15T13:32:38.063Z,99307.14
2019-03-15T13:35:05.655Z,99302.01
2019-03-15T13:37:33.041Z,99300.91
2019-03-15T13:40:02.226Z,99307.55
2019-03-15T13:42:29.950Z,99291.98
2019-03-15T13:44:57.327Z,99307.91
2019-03-15T13:47:27.202Z,99320.19
2019-03-15T13:49:55.696Z,99319.29
2019-03-15T13:52:25.195Z,99319.37
2019-03-15T13:54:52.604Z,99320.94
2019-03-15T13:57:21.574Z,99323.00
2019-03-15T13:59:50.206Z,99329.79
2019-03-15T14:02:18.177Z,99327.27
2019-03-15T14:04:45.214Z,99338.45
2019-03-15T14:07:15.376Z,99332.67
2019-03-15T14:09:43.835Z,99332.36
2019-03-15T14:12:10.896Z,99329.91
2019-03-15T14:14:48.105Z,99328.47
2019-03-15T14:17:17.868Z,99329.45
2019-03-15T14:19:44.955Z,99314.97
2019-03-15T14:22:28.021Z,99331.28
2019-03-15T14:24:55.338Z,99304.53
2019-03-15T14:27:37.022Z,99321.56
2019-03-15T14:29:57.743Z,99313.94
2019-03-15T14:32:29.580Z,99306.20
2019-03-15T14:35:01.508Z,99317.66
2019-03-15T14:37:33.281Z,99317.30
2019-03-15T14:40:20.055Z,99324.30
2019-03-15T14:42:48.745Z,99330.69
2019-03-15T14:45:15.987Z,99308.23
2019-03-15T14:47:49.032Z,99327.03
2019-03-15T14:50:24.071Z,99326.00
2019-03-15T14:52:51.582Z,99312.61
2019-03-15T14:55:22.837Z,99333.73
2019-03-15T14:57:53.508Z,99331.33
2019-03-15T15:00:21.944Z,99316.03
2019-03-15T15:02:48.981Z,99326.47
2019-03-15T15:05:16.063Z,99325.45
2019-03-15T15:07:44.241Z,99328.89
2019-03-15T15:10:12.475Z,99321.48
2019-03-15T15:12:39.800Z,99330.52
2019-03-15T15:15:14.746Z,99317.02
2019-03-15T15:17:49.952Z,99320.11
2019-03-15T15:20:17.321Z,99322.87
2019-03-15T15:22:44.347Z,99325.19
2019-03-15T15:25:11.677Z,99316.14
2019-03-15T15:27:48.796Z,99332.18
2019-03-15T15:30:17.284Z,99321.14
2019-03-15T15:32:44.343Z,99286.30
2019-03-15T15:35:11.678Z,99315.92
2019-03-15T15:37:38.789Z,99328.30
2019-03-15T15:40:08.315Z,99337.00
2019-03-15T15:42:35.381Z,99341.23
2019-03-15T15:45:04.513Z,99331.98
2019-03-15T15:47:33.451Z,99332.28
2019-03-15T15:50:00.643Z,99329.66
2019-03-15T15:52:27.936Z,99330.22
2019-03-15T15:54:55.035Z,99337.22
2019-03-15T15:57:22.177Z,99331.95
2019-03-15T15:59:49.399Z,99332.88
2019-03-15T16:02:16.458Z,99317.25
2019-03-15T16:04:43.680Z,99332.14
2019-03-15T16:07:11.107Z,99327.64
2019-03-15T16:09:38.276Z,99337.19
2019-03-15T16:12:05.328Z,99330.87
2019-03-15T16:14:34.942Z,99337.68
2019-03-15T16:17:02.186Z,99347.48
2019-03-15T16:19:29.423Z,99349.08
2019-03-15T16:21:59.383Z,99354.36
2019-03-15T16:24:26.656Z,99325.27
2019-03-15T16:26:53.716Z,99346.66
2019-03-15T16:29:22.371Z,99343.63
2019-03-15T16:31:49.410Z,99336.65
2019-03-15T16:34:16.451Z,99335.48
2019-03-15T16:36:43.644Z,99344.21
2019-03-15T16:39:10.978Z,99334.92
2019-03-15T16:41:42.066Z,99336.58
2019-03-15T16:44:14.231Z,99342.01
2019-03-15T16:46:43.196Z,99351.09
2019-03-15T16:49:17.179Z,99348.94
2019-03-15T16:51:44.345Z,99337.31
2019-03-15T16:54:15.682Z,99338.27
2019-03-15T16:56:43.187Z,99351.21
2019-03-15T16:59:15.544Z,99351.77
2019-03-15T17:01:43.616Z,99356.78
2019-03-15T17:04:11.369Z,99350.03
2019-03-15T17:06:42.501Z,99355.80
2019-03-15T17:09:30.233Z,99344.22
2019-03-15T17:11:57.767Z,99361.13
2019-03-15T17:14:25.978Z,99359.36
2019-03-15T17:16:53.281Z,99364.95
2019-03-15T17:19:21.060Z,99352.36
2019-03-15T17:21:56.321Z,99365.63
2019-03-15T17:24:26.052Z,99350.63
2019-03-15T17:26:53.243Z,99368.09
2019-03-15T17:29:20.399Z,99347.73
2019-03-15T17:31:47.556Z,99362.75
2019-03-15T17:34:14.723Z,99351.95
2019-03-15T17:36:41.828Z,99352.53
2019-03-15T17:39:08.894Z,99356.89
2019-03-15T17:41:36.089Z,99358.34
2019-03-15T17:47:41.762Z,99348.78
2019-03-15T17:50:11.192Z,99342.48
2019-03-15T17:52:38.322Z,99352.28
2019-03-15T17:55:05.868Z,99337.74
2019-03-15T17:57:34.753Z,99328.73
2019-03-15T18:00:13.639Z,99341.88
2019-03-15T18:02:41.279Z,99338.36
2019-03-15T18:05:08.769Z,99345.72
2019-03-15T18:07:35.868Z,99341.27
2019-03-15T18:10:03.829Z,99360.12
2019-03-15T18:12:43.587Z,99357.11
2019-03-15T18:15:10.730Z,99360.63
2019-03-15T18:17:48.665Z,99346.91
2019-03-15T18:20:15.916Z,99377.39
2019-03-15T18:22:45.000Z,99377.59
2019-03-15T18:25:12.061Z,99376.36
2019-03-15T18:27:39.421Z,99377.55
2019-03-15T18:30:07.482Z,99367.00
2019-03-15T18:32:34.564Z,99387.81
2019-03-15T18:35:01.798Z,99381.78
2019-03-15T18:37:29.174Z,99381.45
2019-03-15T18:39:56.644Z,99372.67
2019-03-15T18:42:24.292Z,99389.52
2019-03-15T18:44:52.288Z,99387.85
2019-03-15T18:47:21.420Z,99385.86
2019-03-15T18:49:49.205Z,99387.16
2019-03-15T18:52:19.420Z,99379.28
2019-03-15T18:54:47.758Z,99391.81
2019-03-15T18:57:15.306Z,99387.94
2019-03-15T18:59:42.426Z,99380.72
2019-03-15T19:02:09.570Z,99390.43
2019-03-15T19:04:36.724Z,99385.34
2019-03-15T19:07:03.777Z,99386.64
2019-03-15T19:09:30.995Z,99399.53
2019-03-15T19:11:58.095Z,99398.56
2019-03-15T19:14:28.267Z,99402.58
2019-03-15T19:16:59.669Z,99392.53
2019-03-15T19:19:27.957Z,99405.54
2019-03-15T19:21:57.044Z,99404.45
2019-03-15T19:24:24.116Z,99399.72
2019-03-15T19:26:51.355Z,99418.73
2019-03-15T19:29:18.656Z,99421.48
2019-03-15T19:31:45.741Z,99423.47
2019-03-15T19:34:12.812Z,99421.23
2019-03-15T19:36:40.241Z,99439.91
2019-03-15T19:39:07.351Z,99426.05
2019-03-15T19:41:34.587Z,99436.12
2019-03-15T19:44:03.502Z,99425.59
2019-03-15T19:46:30.711Z,99439.30
2019-03-15T19:48:57.897Z,99436.94
2019-03-15T19:51:25.107Z,99431.02
2019-03-15T19:53:54.352Z,99441.06
2019-03-15T19:56:23.235Z,99432.21
2019-03-15T19:58:50.288Z,99437.55
2019-03-15T20:01:17.522Z,99448.92
2019-03-15T20:03:45.069Z,99443.36
2019-03-15T20:06:12.803Z,99440.18
2019-03-15T20:08:41.463Z,99444.08
2019-03-15T20:11:10.845Z,99438.27
2019-03-15T20:13:38.010Z,99442.03
2019-03-15T20:16:05.174Z,99448.90
2019-03-15T20:18:32.220Z,99439.81
2019-03-15T20:20:59.409Z,99429.17
2019-03-15T20:23:26.938Z,99442.03
2019-03-15T20:25:54.206Z,99424.19
2019-03-15T20:28:21.676Z,99464.62
2019-03-15T20:30:52.187Z,99464.95
2019-03-15T20:33:19.889Z,99463.54
2019-03-15T20:35:47.078Z,99472.42
2019-03-15T20:38:14.709Z,99470.05
2019-03-15T20:40:41.909Z,99468.50
2019-03-15T20:43:08.982Z,99472.40
2019-03-15T20:45:36.276Z,99470.05
2019-03-15T20:48:03.399Z,99466.83
2019-03-15T20:50:30.613Z,99475.00
2019-03-15T20:53:07.841Z,99479.84
2019-03-15T20:55:28.916Z,99485.63
2019-03-15T20:57:56.911Z,99486.10
2019-03-15T21:00:34.848Z,99489.67
2019-03-15T21:02:53.699Z,99490.00
2019-03-15T21:05:20.773Z,99503.27
2019-03-15T21:07:48.397Z,99497.11
2019-03-15T21:10:15.833Z,99497.83
2019-03-15T21:12:42.927Z,99505.05
2019-03-15T21:15:10.418Z,99507.07
2019-03-15T21:17:38.421Z,99499.27
2019-03-15T21:20:08.486Z,99505.63
2019-03-15T21:22:38.506Z,99520.80
2019-03-15T21:25:06.476Z,99525.27
2019-03-15T21:27:33.647Z,99520.81
2019-03-15T21:30:00.994Z,99524.45
2019-03-15T21:32:34.442Z,99517.12
2019-03-15T21:35:01.854Z,99521.87
2019-03-15T21:37:29.846Z,99517.47
2019-03-15T21:39:57.777Z,99523.39
2019-03-15T21:42:25.242Z,99524.57
2019-03-15T21:44:52.296Z,99532.38
2019-03-15T21:47:19.866Z,99542.66
2019-03-15T21:49:46.982Z,99538.05
2019-03-15T21:52:14.128Z,99538.76
2019-03-15T21:54:41.531Z,99521.61
2019-03-15T21:57:08.642Z,99528.36
2019-03-15T21:59:39.116Z,99533.47
2019-03-15T22:02:06.886Z,99537.61
2019-03-15T22:04:34.021Z,99520.45
2019-03-15T22:07:01.345Z,99535.36
2019-03-15T22:09:28.570Z,99534.42
2019-03-15T22:11:55.676Z,99546.80
2019-03-15T22:14:22.771Z,99554.73
2019-03-15T22:16:50.403Z,99550.95
2019-03-15T22:19:18.589Z,99551.19
2019-03-15T22:21:45.671Z,99557.69
2019-03-15T22:24:13.155Z,99565.25
2019-03-15T22:26:40.331Z,99565.73
2019-03-15T22:29:07.757Z,99561.80
2019-03-15T22:31:35.973Z,99567.23
2019-03-15T22:34:04.985Z,99574.70
2019-03-15T22:36:32.206Z,99565.12
2019-03-15T22:38:59.297Z,99579.05
2019-03-15T22:41:26.358Z,99580.24
2019-03-15T22:44:05.456Z,99585.80
2019-03-15T22:46:38.347Z,99593.36
2019-03-15T22:49:14.703Z,99605.17
2019-03-15T22:51:41.723Z,99601.41
2019-03-15T22:54:08.695Z,99601.52
2019-03-15T22:56:38.616Z,99610.97
2019-03-15T22:59:07.505Z,99625.41
2019-03-15T23:01:34.570Z,99624.81
2019-03-15T23:04:01.663Z,99629.06
2019-03-15T23:06:28.876Z,99627.42
2019-03-15T23:08:56.430Z,99630.98
2019-03-15T23:11:23.577Z,99627.89
2019-03-15T23:13:52.547Z,99639.84
2019-03-15T23:16:20.788Z,99634.04
2019-03-15T23:18:48.151Z,99622.94
2019-03-15T23:21:15.337Z,99639.84
2019-03-15T23:23:42.372Z,99638.78
2019-03-15T23:26:10.055Z,99629.20
2019-03-15T23:28:37.145Z,99636.17
2019-03-15T23:31:04.215Z,99644.47
2019-03-15T23:33:33.090Z,99648.83
2019-03-15T23:36:00.196Z,99655.09
2019-03-15T23:38:27.249Z,99639.73
2019-03-15T23:40:58.686Z,99646.36
2019-03-15T23:43:25.751Z,99638.89
2019-03-15T23:45:54.634Z,99635.35
2019-03-15T23:48:21.739Z,99643.64
2019-03-15T23:50:48.777Z,99630.98
2019-03-15T23:53:15.877Z,99642.55
2019-03-15T23:55:42.975Z,99640.32
2019-03-15T23:58:10.061Z,99634.03
